Time;durP1;ratioP1;P1;durP2;ratioP2;P2;SDS_P1;SDS_P2;PMS_P1;PMS_P2;Temp;Humidity;BMP_temperature;BMP_pressure;BME280_temperature;BME280_humidity;BME280_pressure;Samples;Min_cycle;Max_cycle;Signal;HPM_P1;HPM_P2
2021/11/09 08:06:29;;;;;;;13.40;5.68;;;;;;;;;;10729355;22;20044;-87
2021/11/09 08:11:35;;;;;;;11.55;6.15;;;;;;;;;;10565295;28;20105;-85
2021/11/09 08:16:37;;;;;;;12.48;6.18;;;;;;;;;;10556804;28;20028;-87
2021/11/09 08:21:39;;;;;;;15.38;8.10;;;;;;;;;;10554078;28;20028;-86
2021/11/09 08:26:40;;;;;;;16.70;7.28;;;;;;;;;;10553048;28;20035;-86
2021/11/09 08:31:43;;;;;;;17.92;7.20;;;;;;;;;;10550057;28;20136;-86
2021/11/09 08:36:45;;;;;;;15.82;7.10;;;;;;;;;;10554060;28;20024;-87
2021/11/09 08:41:49;;;;;;;15.27;7.22;;;;;;;;;;10553387;28;20059;-87
2021/11/09 08:46:52;;;;;;;17.27;7.75;;;;;;;;;;10555611;28;20024;-86
2021/11/09 08:51:54;;;;;;;17.10;7.85;;;;;;;;;;10555096;28;20104;-86
2021/11/09 08:57:10;;;;;;;19.17;10.05;;;;;;;;;;10550655;28;20055;-86
2021/11/09 09:07:33;;;;;;;14.60;7.37;;;;;;;;;;10560503;28;20036;-86
2021/11/09 09:12:35;;;;;;;16.70;6.95;;;;;;;;;;10566696;28;20020;-85
2021/11/09 09:17:37;;;;;;;13.25;6.70;;;;;;;;;;10581756;28;20053;-85
2021/11/09 09:22:50;;;;;;;13.48;6.15;;;;;;;;;;10566355;28;20028;-86
2021/11/09 09:28:24;;;;;;;14.15;7.10;;;;;;;;;;10548418;28;20508;-86
2021/11/09 09:59:52;;;;;;;11.55;5.60;;;;;;;;;;10553640;28;20482;-84
2021/11/09 10:04:57;;;;;;;10.52;5.30;;;;;;;;;;10552845;28;20477;-86
2021/11/09 10:09:59;;;;;;;9.75;4.68;;;;;;;;;;10568141;28;20028;-85
2021/11/09 10:15:06;;;;;;;10.43;5.10;;;;;;;;;;10552348;28;20050;-85
2021/11/09 10:20:15;;;;;;;10.82;5.47;;;;;;;;;;10553617;28;20039;-83
2021/11/09 10:25:18;;;;;;;7.70;4.50;;;;;;;;;;10555250;28;20027;-84
2021/11/09 10:30:20;;;;;;;8.40;4.75;;;;;;;;;;10552167;28;20020;-85
2021/11/09 10:35:22;;;;;;;8.27;4.57;;;;;;;;;;10556716;28;20021;-85
2021/11/09 10:40:33;;;;;;;8.07;4.20;;;;;;;;;;10552937;28;20028;-86
2021/11/09 10:45:38;;;;;;;10.45;4.10;;;;;;;;;;10554216;28;20024;-85
2021/11/09 10:50:41;;;;;;;7.78;3.78;;;;;;;;;;10554369;28;20028;-84
2021/11/09 10:56:11;;;;;;;9.45;4.60;;;;;;;;;;10559076;28;20039;-85
2021/11/09 11:06:17;;;;;;;7.75;3.50;;;;;;;;;;10566808;28;20143;-84
2021/11/09 11:11:21;;;;;;;7.40;3.95;;;;;;;;;;10552164;28;20020;-84
2021/11/09 11:16:25;;;;;;;7.22;3.15;;;;;;;;;;10557897;28;20028;-83
2021/11/09 11:27:34;;;;;;;6.50;3.50;;;;;;;;;;10555758;28;20111;-85
2021/11/09 11:32:35;;;;;;;8.73;3.95;;;;;;;;;;10554372;28;20039;-85
2021/11/09 11:37:42;;;;;;;;;;;;;;;;;;10554798;28;20092;-87
2021/11/09 11:49:14;;;;;;;6.18;2.80;;;;;;;;;;10555252;28;20036;-87
2021/11/09 11:54:19;;;;;;;7.07;3.10;;;;;;;;;;10426318;28;20044;-87
2021/11/09 11:59:23;;;;;;;6.28;2.97;;;;;;;;;;10574255;28;20012;-84
2021/11/09 12:04:39;;;;;;;4.97;2.63;;;;;;;;;;10562420;28;20406;-85
2021/11/09 12:09:51;;;;;;;8.52;3.40;;;;;;;;;;10552649;28;20134;-87
2021/11/09 12:14:58;;;;;;;5.85;2.80;;;;;;;;;;10551553;28;20027;-86
2021/11/09 12:20:05;;;;;;;7.38;2.90;;;;;;;;;;10555045;28;20035;-86
2021/11/09 12:25:07;;;;;;;8.32;2.70;;;;;;;;;;10562158;28;20059;-85
2021/11/09 12:30:14;;;;;;;6.22;2.90;;;;;;;;;;10573243;28;20028;-86
2021/11/09 12:35:25;;;;;;;7.47;2.67;;;;;;;;;;10571869;28;20116;-89
2021/11/09 12:40:33;;;;;;;5.85;3.10;;;;;;;;;;10562868;28;20054;-86
2021/11/09 12:45:37;;;;;;;5.82;2.67;;;;;;;;;;10552100;28;20024;-88
2021/11/09 12:50:39;;;;;;;5.95;2.38;;;;;;;;;;10554748;28;20020;-86
2021/11/09 13:12:49;;;;;;;6.07;2.70;;;;;;;;;;10520921;28;20029;-87
2021/11/09 13:29:22;;;;;;;6.22;2.50;;;;;;;;;;10506440;28;20487;-86
2021/11/09 13:40:04;;;;;;;4.32;2.58;;;;;;;;;;10509840;28;20486;-86
2021/11/09 13:45:16;;;;;;;6.15;2.42;;;;;;;;;;10544200;28;20035;-86
2021/11/09 13:50:18;;;;;;;4.47;2.70;;;;;;;;;;10534857;28;20045;-86
2021/11/09 13:55:20;;;;;;;3.80;1.70;;;;;;;;;;10506003;28;20033;-84
2021/11/09 14:00:34;;;;;;;4.57;2.28;;;;;;;;;;10520853;28;20040;-86
2021/11/09 14:06:38;;;;;;;7.25;4.05;;;;;;;;;;10522126;28;20033;-86
2021/11/09 14:16:19;;;;;;;6.97;2.72;;;;;;;;;;10530754;28;20090;-88
2021/11/09 14:21:32;;;;;;;5.65;2.67;;;;;;;;;;10547902;28;20040;-88
2021/11/09 14:26:33;;;;;;;5.68;2.15;;;;;;;;;;10546040;28;20063;-87
2021/11/09 14:31:37;;;;;;;;;;;;;;;;;;10546653;28;20040;-86
2021/11/09 14:36:39;;;;;;;6.28;3.10;;;;;;;;;;10545439;28;19905;-83
2021/11/09 14:42:03;;;;;;;4.97;2.40;;;;;;;;;;10541739;28;20033;-88
2021/11/09 14:47:04;;;;;;;4.05;2.17;;;;;;;;;;10524991;28;20058;-86
2021/11/09 18:27:10;;;;;;;9.88;5.82;;;;;;;;;;10504090;28;20054;-88
2021/11/09 20:37:07;;;;;;;11.50;9.57;;;;;;;;;;10531807;28;20032;-89
